Terminal Aerodrome Forecast
Issued by NWS

Home | Current Version | Previous Version | Text Only | Print | Product List | Glossary On
Versions: 1 2 3 4 5 6 7 8 9 10 11 12 13 14 15 16 17
051
FTUS43 KICT 241120
TAFHUT
TAF
KHUT 241120Z 2412/2512 17013KT P6SM BKN250 WS015/19050KT
     FM241400 18023G31KT P6SM BKN250
     FM241600 18028G40KT P6SM SCT250
     FM242200 19018G25KT P6SM SCT250
     FM250300 16011KT P6SM SCT200 WS020/19050KT=

USA.gov is the U.S. government's official web portal to all federal, state and local government web resources and services.